首页
METAR-TAF:

METAR-TAF

机场 :

杰克逊, 怀俄明州, 美国

纬度: 43-36N, 经度: 110-44W, 海拔: 1964米

当前天气观测

该预报发布于22分钟前的04:56 UTC
风速11节,风向南转西南
温度 8°C
湿度 49%
气压 1013 hPa
能見度: 16.1公里
阴天层高于6500英尺

METAR: KJAC 260456Z AUTO 20011KT 10SM OVC065 08/M02 A2990 RMK AO2 SLP108 T00831017

时间: 23:18 (05:18 UTC)

预报

该预报发布于5小时和56分钟前的23:22 UTC
预报有效从26日的 00点(UTC)到 26日的 24点(UTC)
风速11节,风向西南
能見度: 10公里
散云层高于4000英尺
多云层高于6000英尺
从 26日的 0400点(UTC)
风速7节,风向南转西南
能見度: 10公里
散云层高于6000英尺
多云层高于9000英尺
从 26日的 1700点(UTC)
风速12节,风向南转西南,有时为20节阵风
能見度: 10公里
散云层高于7000英尺
散云层高于15000英尺

TAF: KJAC 252322Z 2600/2624 23011KT P6SM SCT040 BKN060 FM260400 21007KT P6SM SCT060 BKN090 FM261700 21012G20KT P6SM SCT070 SCT150

超过4000个机场的气象观测和天气预报(METAR&TAF报告)。

可查询的气象台以黄色和红色小点在地图上表示。

将鼠标移到小点上方,可查看气象台名称。

然后点击查看天气观测和预报。

如需切换地图:点击带黑十字的绿色按钮放大地图;点击带横线的绿色按钮缩小地图;或者点击绿色箭头查看邻近地区的地图。


METAR-TAF: